sensor_id;sensor_type;location;lat;lon;timestamp;P1;durP1;ratioP1;P2;durP2;ratioP2
28547;SDS011;15750;49.600;8.746;2023-02-16T00:01:07;15.87;;;10.70;;
28547;SDS011;15750;49.600;8.746;2023-02-16T00:03:49;12.97;;;11.57;;
28547;SDS011;15750;49.600;8.746;2023-02-16T00:06:19;12.50;;;10.80;;
28547;SDS011;15750;49.600;8.746;2023-02-16T00:08:49;13.87;;;11.23;;
28547;SDS011;15750;49.600;8.746;2023-02-16T00:11:20;13.23;;;10.90;;
28547;SDS011;15750;49.600;8.746;2023-02-16T00:14:11;15.70;;;11.00;;
28547;SDS011;15750;49.600;8.746;2023-02-16T00:16:41;13.77;;;11.27;;
28547;SDS011;15750;49.600;8.746;2023-02-16T00:19:19;15.17;;;11.83;;
28547;SDS011;15750;49.600;8.746;2023-02-16T00:21:50;11.37;;;10.17;;
28547;SDS011;15750;49.600;8.746;2023-02-16T00:24:23;11.60;;;10.27;;
28547;SDS011;15750;49.600;8.746;2023-02-16T00:26:53;13.13;;;11.17;;
28547;SDS011;15750;49.600;8.746;2023-02-16T00:29:23;12.60;;;11.17;;
28547;SDS011;15750;49.600;8.746;2023-02-16T00:31:55;16.97;;;11.97;;
28547;SDS011;15750;49.600;8.746;2023-02-16T00:34:29;12.10;;;10.80;;
28547;SDS011;15750;49.600;8.746;2023-02-16T00:37:00;13.40;;;9.73;;
28547;SDS011;15750;49.600;8.746;2023-02-16T00:39:31;12.17;;;10.90;;
28547;SDS011;15750;49.600;8.746;2023-02-16T00:42:00;12.10;;;10.57;;
28547;SDS011;15750;49.600;8.746;2023-02-16T00:44:33;12.07;;;10.80;;
28547;SDS011;15750;49.600;8.746;2023-02-16T00:47:09;11.73;;;10.33;;
28547;SDS011;15750;49.600;8.746;2023-02-16T00:49:47;12.50;;;11.20;;
28547;SDS011;15750;49.600;8.746;2023-02-16T00:52:30;11.73;;;10.27;;
28547;SDS011;15750;49.600;8.746;2023-02-16T00:55:01;11.83;;;10.63;;
28547;SDS011;15750;49.600;8.746;2023-02-16T00:57:37;12.80;;;9.70;;
28547;SDS011;15750;49.600;8.746;2023-02-16T01:00:12;11.37;;;9.47;;
28547;SDS011;15750;49.600;8.746;2023-02-16T01:02:45;11.57;;;9.97;;
28547;SDS011;15750;49.600;8.746;2023-02-16T01:05:20;14.53;;;9.53;;
28547;SDS011;15750;49.600;8.746;2023-02-16T01:07:48;11.37;;;10.23;;
28547;SDS011;15750;49.600;8.746;2023-02-16T01:10:46;11.73;;;9.73;;
28547;SDS011;15750;49.600;8.746;2023-02-16T01:13:40;10.27;;;9.27;;
28547;SDS011;15750;49.600;8.746;2023-02-16T01:16:14;10.07;;;9.07;;
28547;SDS011;15750;49.600;8.746;2023-02-16T01:18:45;10.20;;;9.20;;
28547;SDS011;15750;49.600;8.746;2023-02-16T01:21:19;10.67;;;9.63;;
28547;SDS011;15750;49.600;8.746;2023-02-16T01:23:48;10.23;;;9.23;;
28547;SDS011;15750;49.600;8.746;2023-02-16T01:26:18;10.33;;;9.23;;
28547;SDS011;15750;49.600;8.746;2023-02-16T01:28:47;11.20;;;9.40;;
28547;SDS011;15750;49.600;8.746;2023-02-16T01:31:16;11.20;;;9.97;;
28547;SDS011;15750;49.600;8.746;2023-02-16T01:33:45;12.03;;;9.87;;
28547;SDS011;15750;49.600;8.746;2023-02-16T01:36:17;14.97;;;11.53;;
28547;SDS011;15750;49.600;8.746;2023-02-16T01:38:53;12.83;;;10.07;;
28547;SDS011;15750;49.600;8.746;2023-02-16T01:41:23;13.63;;;10.00;;
28547;SDS011;15750;49.600;8.746;2023-02-16T01:44:11;12.77;;;10.67;;
28547;SDS011;15750;49.600;8.746;2023-02-16T01:46:44;13.03;;;10.83;;
28547;SDS011;15750;49.600;8.746;2023-02-16T01:49:19;13.60;;;10.87;;
28547;SDS011;15750;49.600;8.746;2023-02-16T01:51:51;12.57;;;10.33;;
28547;SDS011;15750;49.600;8.746;2023-02-16T01:54:28;13.83;;;10.40;;
28547;SDS011;15750;49.600;8.746;2023-02-16T01:57:04;14.27;;;11.87;;
28547;SDS011;15750;49.600;8.746;2023-02-16T02:02:47;14.00;;;10.77;;
28547;SDS011;15750;49.600;8.746;2023-02-16T02:05:20;14.03;;;11.37;;
28547;SDS011;15750;49.600;8.746;2023-02-16T02:08:11;13.67;;;10.80;;
28547;SDS011;15750;49.600;8.746;2023-02-16T02:10:58;14.73;;;10.97;;
28547;SDS011;15750;49.600;8.746;2023-02-16T02:13:36;14.97;;;11.57;;
28547;SDS011;15750;49.600;8.746;2023-02-16T02:16:09;14.53;;;11.07;;
28547;SDS011;15750;49.600;8.746;2023-02-16T02:18:40;11.43;;;10.33;;
28547;SDS011;15750;49.600;8.746;2023-02-16T02:21:15;13.17;;;11.10;;
28547;SDS011;15750;49.600;8.746;2023-02-16T02:24:33;12.07;;;10.57;;
28547;SDS011;15750;49.600;8.746;2023-02-16T02:27:26;13.73;;;10.80;;
28547;SDS011;15750;49.600;8.746;2023-02-16T02:30:12;11.87;;;10.20;;
28547;SDS011;15750;49.600;8.746;2023-02-16T02:33:06;14.00;;;10.47;;
28547;SDS011;15750;49.600;8.746;2023-02-16T02:36:07;11.97;;;10.30;;
28547;SDS011;15750;49.600;8.746;2023-02-16T02:38:47;12.77;;;10.40;;
28547;SDS011;15750;49.600;8.746;2023-02-16T02:41:30;18.57;;;10.50;;
28547;SDS011;15750;49.600;8.746;2023-02-16T02:44:24;12.97;;;10.53;;
28547;SDS011;15750;49.600;8.746;2023-02-16T02:46:56;11.53;;;10.33;;
28547;SDS011;15750;49.600;8.746;2023-02-16T02:49:25;10.90;;;9.57;;
28547;SDS011;15750;49.600;8.746;2023-02-16T02:51:54;12.07;;;10.77;;
28547;SDS011;15750;49.600;8.746;2023-02-16T02:54:23;11.87;;;10.53;;
28547;SDS011;15750;49.600;8.746;2023-02-16T02:57:15;12.20;;;10.37;;
28547;SDS011;15750;49.600;8.746;2023-02-16T03:00:08;12.63;;;10.43;;
28547;SDS011;15750;49.600;8.746;2023-02-16T03:02:59;11.90;;;10.60;;
28547;SDS011;15750;49.600;8.746;2023-02-16T03:05:33;10.50;;;9.40;;
28547;SDS011;15750;49.600;8.746;2023-02-16T03:08:06;11.10;;;10.00;;
28547;SDS011;15750;49.600;8.746;2023-02-16T03:10:41;10.53;;;9.43;;
28547;SDS011;15750;49.600;8.746;2023-02-16T03:13:32;11.97;;;9.67;;
28547;SDS011;15750;49.600;8.746;2023-02-16T03:16:07;11.00;;;9.53;;
28547;SDS011;15750;49.600;8.746;2023-02-16T03:18:41;14.50;;;9.80;;
28547;SDS011;15750;49.600;8.746;2023-02-16T03:21:28;10.73;;;9.67;;
28547;SDS011;15750;49.600;8.746;2023-02-16T03:24:18;10.47;;;9.37;;
28547;SDS011;15750;49.600;8.746;2023-02-16T03:27:07;11.93;;;9.43;;
28547;SDS011;15750;49.600;8.746;2023-02-16T03:29:54;10.57;;;9.47;;
28547;SDS011;15750;49.600;8.746;2023-02-16T03:32:25;13.60;;;9.97;;
28547;SDS011;15750;49.600;8.746;2023-02-16T03:34:55;10.43;;;9.33;;
28547;SDS011;15750;49.600;8.746;2023-02-16T03:37:23;10.80;;;9.53;;
28547;SDS011;15750;49.600;8.746;2023-02-16T03:39:52;12.27;;;8.87;;
28547;SDS011;15750;49.600;8.746;2023-02-16T03:42:39;12.00;;;9.43;;
28547;SDS011;15750;49.600;8.746;2023-02-16T03:45:16;12.60;;;9.50;;
28547;SDS011;15750;49.600;8.746;2023-02-16T03:47:47;12.27;;;9.73;;
28547;SDS011;15750;49.600;8.746;2023-02-16T03:50:15;10.20;;;8.90;;
28547;SDS011;15750;49.600;8.746;2023-02-16T03:52:44;10.37;;;9.37;;
28547;SDS011;15750;49.600;8.746;2023-02-16T03:55:13;10.30;;;9.23;;
28547;SDS011;15750;49.600;8.746;2023-02-16T03:57:42;10.57;;;9.50;;
28547;SDS011;15750;49.600;8.746;2023-02-16T04:00:11;10.97;;;9.80;;
28547;SDS011;15750;49.600;8.746;2023-02-16T04:02:41;13.93;;;9.73;;
28547;SDS011;15750;49.600;8.746;2023-02-16T04:05:11;9.97;;;8.97;;
28547;SDS011;15750;49.600;8.746;2023-02-16T04:07:40;11.17;;;9.60;;
28547;SDS011;15750;49.600;8.746;2023-02-16T04:10:09;10.73;;;9.70;;
28547;SDS011;15750;49.600;8.746;2023-02-16T04:12:38;10.87;;;9.77;;
28547;SDS011;15750;49.600;8.746;2023-02-16T04:15:06;11.90;;;10.60;;
28547;SDS011;15750;49.600;8.746;2023-02-16T04:17:38;12.17;;;9.50;;
28547;SDS011;15750;49.600;8.746;2023-02-16T04:20:08;9.93;;;8.80;;
28547;SDS011;15750;49.600;8.746;2023-02-16T04:22:40;10.67;;;9.57;;
28547;SDS011;15750;49.600;8.746;2023-02-16T04:25:10;12.20;;;9.17;;
28547;SDS011;15750;49.600;8.746;2023-02-16T04:27:39;12.97;;;10.83;;
28547;SDS011;15750;49.600;8.746;2023-02-16T04:30:10;10.67;;;9.57;;
28547;SDS011;15750;49.600;8.746;2023-02-16T04:32:42;11.40;;;9.47;;
28547;SDS011;15750;49.600;8.746;2023-02-16T04:35:13;11.93;;;10.07;;
28547;SDS011;15750;49.600;8.746;2023-02-16T04:37:43;13.30;;;10.47;;
28547;SDS011;15750;49.600;8.746;2023-02-16T04:40:12;11.40;;;10.17;;
28547;SDS011;15750;49.600;8.746;2023-02-16T04:42:43;13.97;;;10.47;;
28547;SDS011;15750;49.600;8.746;2023-02-16T04:45:12;11.50;;;10.30;;
28547;SDS011;15750;49.600;8.746;2023-02-16T04:47:41;13.20;;;9.53;;
28547;SDS011;15750;49.600;8.746;2023-02-16T04:50:10;11.17;;;10.07;;
28547;SDS011;15750;49.600;8.746;2023-02-16T04:52:40;9.97;;;8.93;;
28547;SDS011;15750;49.600;8.746;2023-02-16T04:55:09;10.70;;;9.57;;
28547;SDS011;15750;49.600;8.746;2023-02-16T04:57:38;12.20;;;10.00;;
28547;SDS011;15750;49.600;8.746;2023-02-16T05:00:07;11.10;;;9.23;;
28547;SDS011;15750;49.600;8.746;2023-02-16T05:02:38;10.00;;;8.97;;
28547;SDS011;15750;49.600;8.746;2023-02-16T05:05:07;9.43;;;8.43;;
28547;SDS011;15750;49.600;8.746;2023-02-16T05:07:37;11.87;;;9.20;;
28547;SDS011;15750;49.600;8.746;2023-02-16T05:10:06;9.33;;;8.33;;
28547;SDS011;15750;49.600;8.746;2023-02-16T05:12:35;11.30;;;9.70;;
28547;SDS011;15750;49.600;8.746;2023-02-16T05:15:21;10.77;;;9.07;;
28547;SDS011;15750;49.600;8.746;2023-02-16T05:17:50;9.90;;;8.90;;
28547;SDS011;15750;49.600;8.746;2023-02-16T05:20:18;10.73;;;9.63;;
28547;SDS011;15750;49.600;8.746;2023-02-16T05:23:08;9.77;;;8.70;;
28547;SDS011;15750;49.600;8.746;2023-02-16T05:25:37;9.40;;;8.47;;
28547;SDS011;15750;49.600;8.746;2023-02-16T05:28:06;10.80;;;9.37;;
28547;SDS011;15750;49.600;8.746;2023-02-16T05:30:35;10.13;;;8.43;;
28547;SDS011;15750;49.600;8.746;2023-02-16T05:33:03;11.50;;;9.03;;
28547;SDS011;15750;49.600;8.746;2023-02-16T05:35:32;9.10;;;8.27;;
28547;SDS011;15750;49.600;8.746;2023-02-16T05:38:01;8.80;;;7.83;;
28547;SDS011;15750;49.600;8.746;2023-02-16T05:40:31;9.37;;;8.37;;
28547;SDS011;15750;49.600;8.746;2023-02-16T05:43:00;12.70;;;9.47;;
28547;SDS011;15750;49.600;8.746;2023-02-16T05:45:29;10.60;;;9.50;;
28547;SDS011;15750;49.600;8.746;2023-02-16T05:47:58;10.57;;;9.43;;
28547;SDS011;15750;49.600;8.746;2023-02-16T05:50:26;11.57;;;10.20;;
28547;SDS011;15750;49.600;8.746;2023-02-16T05:52:57;11.13;;;9.73;;
28547;SDS011;15750;49.600;8.746;2023-02-16T05:55:26;9.90;;;8.90;;
28547;SDS011;15750;49.600;8.746;2023-02-16T05:57:56;9.70;;;8.70;;
28547;SDS011;15750;49.600;8.746;2023-02-16T06:00:25;15.90;;;12.47;;
28547;SDS011;15750;49.600;8.746;2023-02-16T06:02:54;11.13;;;9.67;;
28547;SDS011;15750;49.600;8.746;2023-02-16T06:05:22;12.03;;;9.50;;
28547;SDS011;15750;49.600;8.746;2023-02-16T06:07:51;10.83;;;9.53;;
28547;SDS011;15750;49.600;8.746;2023-02-16T06:10:20;11.13;;;9.93;;
28547;SDS011;15750;49.600;8.746;2023-02-16T06:12:49;9.77;;;8.77;;
28547;SDS011;15750;49.600;8.746;2023-02-16T06:15:19;10.83;;;9.10;;
28547;SDS011;15750;49.600;8.746;2023-02-16T06:17:47;10.30;;;9.23;;
28547;SDS011;15750;49.600;8.746;2023-02-16T06:20:16;11.83;;;9.13;;
28547;SDS011;15750;49.600;8.746;2023-02-16T06:22:46;12.50;;;10.00;;
28547;SDS011;15750;49.600;8.746;2023-02-16T06:25:14;11.40;;;9.03;;
28547;SDS011;15750;49.600;8.746;2023-02-16T06:27:45;9.73;;;8.73;;
28547;SDS011;15750;49.600;8.746;2023-02-16T06:30:15;12.30;;;9.07;;
28547;SDS011;15750;49.600;8.746;2023-02-16T06:32:46;11.20;;;9.10;;
28547;SDS011;15750;49.600;8.746;2023-02-16T06:35:14;14.57;;;10.00;;
28547;SDS011;15750;49.600;8.746;2023-02-16T06:37:43;11.20;;;9.50;;
28547;SDS011;15750;49.600;8.746;2023-02-16T06:40:13;14.67;;;9.07;;
28547;SDS011;15750;49.600;8.746;2023-02-16T06:42:43;10.57;;;9.47;;
28547;SDS011;15750;49.600;8.746;2023-02-16T06:45:12;10.73;;;9.40;;
28547;SDS011;15750;49.600;8.746;2023-02-16T06:47:40;9.80;;;8.77;;
28547;SDS011;15750;49.600;8.746;2023-02-16T06:50:11;10.30;;;9.30;;
28547;SDS011;15750;49.600;8.746;2023-02-16T06:52:40;19.60;;;10.97;;
28547;SDS011;15750;49.600;8.746;2023-02-16T06:55:09;13.80;;;11.30;;
28547;SDS011;15750;49.600;8.746;2023-02-16T06:57:38;12.30;;;11.00;;
28547;SDS011;15750;49.600;8.746;2023-02-16T07:00:07;11.90;;;10.70;;
28547;SDS011;15750;49.600;8.746;2023-02-16T07:02:36;12.30;;;10.33;;
28547;SDS011;15750;49.600;8.746;2023-02-16T07:05:05;10.63;;;9.53;;
28547;SDS011;15750;49.600;8.746;2023-02-16T07:07:35;11.33;;;9.90;;
28547;SDS011;15750;49.600;8.746;2023-02-16T07:10:05;10.83;;;9.27;;
28547;SDS011;15750;49.600;8.746;2023-02-16T07:12:34;11.20;;;9.70;;
28547;SDS011;15750;49.600;8.746;2023-02-16T07:15:03;9.67;;;8.77;;
28547;SDS011;15750;49.600;8.746;2023-02-16T07:17:32;11.03;;;9.87;;
28547;SDS011;15750;49.600;8.746;2023-02-16T07:20:01;12.27;;;9.40;;
28547;SDS011;15750;49.600;8.746;2023-02-16T07:22:31;9.73;;;8.73;;
28547;SDS011;15750;49.600;8.746;2023-02-16T07:25:01;11.53;;;10.27;;
28547;SDS011;15750;49.600;8.746;2023-02-16T07:27:30;11.23;;;9.80;;
28547;SDS011;15750;49.600;8.746;2023-02-16T07:29:59;10.63;;;9.53;;
28547;SDS011;15750;49.600;8.746;2023-02-16T07:32:28;11.80;;;9.50;;
28547;SDS011;15750;49.600;8.746;2023-02-16T07:34:57;10.73;;;9.40;;
28547;SDS011;15750;49.600;8.746;2023-02-16T07:37:26;11.63;;;9.07;;
28547;SDS011;15750;49.600;8.746;2023-02-16T07:39:54;9.60;;;8.60;;
28547;SDS011;15750;49.600;8.746;2023-02-16T07:42:27;9.73;;;8.77;;
28547;SDS011;15750;49.600;8.746;2023-02-16T07:44:58;9.83;;;8.80;;
28547;SDS011;15750;49.600;8.746;2023-02-16T07:47:26;9.57;;;8.57;;
28547;SDS011;15750;49.600;8.746;2023-02-16T07:49:55;11.97;;;9.43;;
28547;SDS011;15750;49.600;8.746;2023-02-16T07:52:24;15.13;;;9.03;;
28547;SDS011;15750;49.600;8.746;2023-02-16T07:54:56;8.97;;;8.07;;
28547;SDS011;15750;49.600;8.746;2023-02-16T07:57:27;11.17;;;9.07;;
28547;SDS011;15750;49.600;8.746;2023-02-16T07:59:56;9.73;;;8.57;;
28547;SDS011;15750;49.600;8.746;2023-02-16T08:02:24;11.47;;;9.23;;
28547;SDS011;15750;49.600;8.746;2023-02-16T08:04:54;10.00;;;9.00;;
28547;SDS011;15750;49.600;8.746;2023-02-16T08:07:22;10.97;;;9.87;;
28547;SDS011;15750;49.600;8.746;2023-02-16T08:09:51;10.50;;;9.43;;
28547;SDS011;15750;49.600;8.746;2023-02-16T08:12:20;11.27;;;9.37;;
28547;SDS011;15750;49.600;8.746;2023-02-16T08:14:50;10.73;;;9.63;;
28547;SDS011;15750;49.600;8.746;2023-02-16T08:17:18;11.60;;;9.87;;
28547;SDS011;15750;49.600;8.746;2023-02-16T08:19:47;10.57;;;9.47;;
28547;SDS011;15750;49.600;8.746;2023-02-16T08:22:17;11.70;;;10.30;;
28547;SDS011;15750;49.600;8.746;2023-02-16T08:24:46;11.80;;;10.60;;
28547;SDS011;15750;49.600;8.746;2023-02-16T08:27:14;12.30;;;10.97;;
28547;SDS011;15750;49.600;8.746;2023-02-16T08:29:43;14.67;;;10.37;;
28547;SDS011;15750;49.600;8.746;2023-02-16T08:32:13;11.70;;;10.47;;
28547;SDS011;15750;49.600;8.746;2023-02-16T08:34:42;13.30;;;11.90;;
28547;SDS011;15750;49.600;8.746;2023-02-16T08:37:11;12.43;;;11.20;;
28547;SDS011;15750;49.600;8.746;2023-02-16T08:39:40;13.53;;;11.30;;
28547;SDS011;15750;49.600;8.746;2023-02-16T08:42:09;13.13;;;11.83;;
28547;SDS011;15750;49.600;8.746;2023-02-16T08:44:39;13.37;;;11.97;;
28547;SDS011;15750;49.600;8.746;2023-02-16T08:47:09;12.63;;;11.33;;
28547;SDS011;15750;49.600;8.746;2023-02-16T08:49:39;13.27;;;11.97;;
28547;SDS011;15750;49.600;8.746;2023-02-16T08:52:09;12.60;;;11.40;;
28547;SDS011;15750;49.600;8.746;2023-02-16T08:54:38;12.00;;;10.80;;
28547;SDS011;15750;49.600;8.746;2023-02-16T08:57:07;13.13;;;11.80;;
28547;SDS011;15750;49.600;8.746;2023-02-16T08:59:36;11.83;;;10.63;;
28547;SDS011;15750;49.600;8.746;2023-02-16T09:02:05;11.73;;;10.60;;
28547;SDS011;15750;49.600;8.746;2023-02-16T09:04:34;12.43;;;11.20;;
28547;SDS011;15750;49.600;8.746;2023-02-16T09:07:04;13.10;;;11.50;;
28547;SDS011;15750;49.600;8.746;2023-02-16T09:09:33;12.67;;;11.40;;
28547;SDS011;15750;49.600;8.746;2023-02-16T09:12:02;12.67;;;11.37;;
28547;SDS011;15750;49.600;8.746;2023-02-16T09:14:31;14.47;;;11.87;;
28547;SDS011;15750;49.600;8.746;2023-02-16T09:17:00;14.43;;;12.93;;
28547;SDS011;15750;49.600;8.746;2023-02-16T09:19:28;13.57;;;12.27;;
28547;SDS011;15750;49.600;8.746;2023-02-16T09:21:57;14.20;;;12.70;;
28547;SDS011;15750;49.600;8.746;2023-02-16T09:24:27;13.90;;;12.47;;
28547;SDS011;15750;49.600;8.746;2023-02-16T09:26:56;14.27;;;12.73;;
28547;SDS011;15750;49.600;8.746;2023-02-16T09:29:25;15.53;;;13.33;;
28547;SDS011;15750;49.600;8.746;2023-02-16T09:31:53;13.57;;;12.17;;
28547;SDS011;15750;49.600;8.746;2023-02-16T09:34:22;13.83;;;12.47;;
28547;SDS011;15750;49.600;8.746;2023-02-16T09:36:53;14.67;;;13.07;;
28547;SDS011;15750;49.600;8.746;2023-02-16T09:39:22;13.53;;;12.13;;
28547;SDS011;15750;49.600;8.746;2023-02-16T09:41:59;13.33;;;11.93;;
28547;SDS011;15750;49.600;8.746;2023-02-16T09:44:39;14.80;;;13.20;;
28547;SDS011;15750;49.600;8.746;2023-02-16T09:47:19;14.20;;;12.70;;
28547;SDS011;15750;49.600;8.746;2023-02-16T09:49:55;14.07;;;12.67;;
28547;SDS011;15750;49.600;8.746;2023-02-16T09:52:27;16.53;;;14.40;;
28547;SDS011;15750;49.600;8.746;2023-02-16T09:55:05;14.23;;;12.37;;
28547;SDS011;15750;49.600;8.746;2023-02-16T09:57:58;16.73;;;14.13;;
28547;SDS011;15750;49.600;8.746;2023-02-16T10:00:40;14.30;;;12.80;;
28547;SDS011;15750;49.600;8.746;2023-02-16T10:03:24;14.63;;;13.07;;
28547;SDS011;15750;49.600;8.746;2023-02-16T10:06:14;17.13;;;14.30;;
28547;SDS011;15750;49.600;8.746;2023-02-16T10:08:56;16.30;;;14.47;;
28547;SDS011;15750;49.600;8.746;2023-02-16T10:11:26;18.03;;;14.57;;
28547;SDS011;15750;49.600;8.746;2023-02-16T10:14:11;17.50;;;14.23;;
28547;SDS011;15750;49.600;8.746;2023-02-16T10:16:50;19.10;;;14.30;;
28547;SDS011;15750;49.600;8.746;2023-02-16T10:19:27;17.60;;;14.63;;
28547;SDS011;15750;49.600;8.746;2023-02-16T10:22:01;18.23;;;15.17;;
28547;SDS011;15750;49.600;8.746;2023-02-16T10:24:37;17.33;;;14.70;;
28547;SDS011;15750;49.600;8.746;2023-02-16T10:27:15;15.97;;;13.87;;
28547;SDS011;15750;49.600;8.746;2023-02-16T10:29:45;14.00;;;12.50;;
28547;SDS011;15750;49.600;8.746;2023-02-16T10:32:15;16.60;;;13.90;;
28547;SDS011;15750;49.600;8.746;2023-02-16T10:34:57;15.87;;;13.30;;
28547;SDS011;15750;49.600;8.746;2023-02-16T10:37:39;17.53;;;13.27;;
28547;SDS011;15750;49.600;8.746;2023-02-16T10:40:24;15.97;;;12.90;;
28547;SDS011;15750;49.600;8.746;2023-02-16T10:43:03;15.50;;;12.40;;
28547;SDS011;15750;49.600;8.746;2023-02-16T10:45:42;16.77;;;12.83;;
28547;SDS011;15750;49.600;8.746;2023-02-16T10:48:18;14.10;;;12.60;;
28547;SDS011;15750;49.600;8.746;2023-02-16T10:50:51;14.83;;;11.73;;
28547;SDS011;15750;49.600;8.746;2023-02-16T10:53:30;15.47;;;12.47;;
28547;SDS011;15750;49.600;8.746;2023-02-16T10:56:19;13.93;;;11.57;;
28547;SDS011;15750;49.600;8.746;2023-02-16T10:59:10;11.47;;;10.27;;
28547;SDS011;15750;49.600;8.746;2023-02-16T11:01:45;14.93;;;11.30;;
28547;SDS011;15750;49.600;8.746;2023-02-16T11:07:15;13.70;;;10.83;;
28547;SDS011;15750;49.600;8.746;2023-02-16T11:09:47;14.13;;;11.03;;
28547;SDS011;15750;49.600;8.746;2023-02-16T11:12:25;12.83;;;11.43;;
28547;SDS011;15750;49.600;8.746;2023-02-16T11:14:59;12.50;;;10.33;;
28547;SDS011;15750;49.600;8.746;2023-02-16T11:17:46;12.80;;;10.07;;
28547;SDS011;15750;49.600;8.746;2023-02-16T11:20:24;13.03;;;10.53;;
28547;SDS011;15750;49.600;8.746;2023-02-16T11:23:11;12.27;;;10.30;;
28547;SDS011;15750;49.600;8.746;2023-02-16T11:25:56;13.37;;;10.10;;
28547;SDS011;15750;49.600;8.746;2023-02-16T11:28:32;12.43;;;10.53;;
28547;SDS011;15750;49.600;8.746;2023-02-16T11:31:09;13.03;;;10.37;;
28547;SDS011;15750;49.600;8.746;2023-02-16T11:33:55;12.10;;;10.33;;
28547;SDS011;15750;49.600;8.746;2023-02-16T11:36:30;17.93;;;13.10;;
28547;SDS011;15750;49.600;8.746;2023-02-16T11:39:02;12.30;;;11.00;;
28547;SDS011;15750;49.600;8.746;2023-02-16T11:41:44;12.17;;;10.37;;
28547;SDS011;15750;49.600;8.746;2023-02-16T11:44:21;15.63;;;12.33;;
28547;SDS011;15750;49.600;8.746;2023-02-16T11:46:54;13.37;;;10.77;;
28547;SDS011;15750;49.600;8.746;2023-02-16T11:49:29;11.43;;;9.97;;
28547;SDS011;15750;49.600;8.746;2023-02-16T11:52:16;14.50;;;10.53;;
28547;SDS011;15750;49.600;8.746;2023-02-16T11:54:55;15.60;;;10.00;;
28547;SDS011;15750;49.600;8.746;2023-02-16T11:57:28;10.40;;;9.30;;
28547;SDS011;15750;49.600;8.746;2023-02-16T12:00:00;10.80;;;9.43;;
28547;SDS011;15750;49.600;8.746;2023-02-16T12:02:48;11.90;;;10.60;;
28547;SDS011;15750;49.600;8.746;2023-02-16T12:05:59;10.77;;;9.03;;
28547;SDS011;15750;49.600;8.746;2023-02-16T12:08:53;10.47;;;9.30;;
28547;SDS011;15750;49.600;8.746;2023-02-16T12:11:36;13.83;;;11.47;;
28547;SDS011;15750;49.600;8.746;2023-02-16T12:14:20;12.50;;;9.60;;
28547;SDS011;15750;49.600;8.746;2023-02-16T12:17:18;11.10;;;9.40;;
28547;SDS011;15750;49.600;8.746;2023-02-16T12:20:02;12.23;;;9.07;;
28547;SDS011;15750;49.600;8.746;2023-02-16T12:22:45;10.77;;;8.43;;
28547;SDS011;15750;49.600;8.746;2023-02-16T12:25:26;11.13;;;9.37;;
28547;SDS011;15750;49.600;8.746;2023-02-16T12:28:02;11.07;;;9.23;;
28547;SDS011;15750;49.600;8.746;2023-02-16T12:30:44;16.67;;;11.47;;
28547;SDS011;15750;49.600;8.746;2023-02-16T12:33:31;11.43;;;9.37;;
28547;SDS011;15750;49.600;8.746;2023-02-16T12:36:13;9.30;;;8.40;;
28547;SDS011;15750;49.600;8.746;2023-02-16T12:39:07;16.70;;;8.77;;
28547;SDS011;15750;49.600;8.746;2023-02-16T12:41:53;10.07;;;8.63;;
28547;SDS011;15750;49.600;8.746;2023-02-16T12:44:46;11.47;;;9.70;;
28547;SDS011;15750;49.600;8.746;2023-02-16T12:47:18;10.80;;;9.70;;
28547;SDS011;15750;49.600;8.746;2023-02-16T12:49:53;12.10;;;10.53;;
28547;SDS011;15750;49.600;8.746;2023-02-16T12:52:27;11.70;;;10.30;;
28547;SDS011;15750;49.600;8.746;2023-02-16T12:55:15;12.50;;;10.90;;
28547;SDS011;15750;49.600;8.746;2023-02-16T12:57:55;16.30;;;11.97;;
28547;SDS011;15750;49.600;8.746;2023-02-16T13:00:36;12.33;;;11.03;;
28547;SDS011;15750;49.600;8.746;2023-02-16T13:06:06;11.90;;;9.73;;
28547;SDS011;15750;49.600;8.746;2023-02-16T13:08:44;11.03;;;9.73;;
28547;SDS011;15750;49.600;8.746;2023-02-16T13:11:21;11.90;;;9.57;;
28547;SDS011;15750;49.600;8.746;2023-02-16T13:13:56;11.70;;;9.90;;
28547;SDS011;15750;49.600;8.746;2023-02-16T13:16:34;11.17;;;10.07;;
28547;SDS011;15750;49.600;8.746;2023-02-16T13:19:09;11.97;;;10.53;;
28547;SDS011;15750;49.600;8.746;2023-02-16T13:21:50;12.03;;;9.10;;
28547;SDS011;15750;49.600;8.746;2023-02-16T13:24:49;11.97;;;8.43;;
28547;SDS011;15750;49.600;8.746;2023-02-16T13:27:34;12.00;;;8.83;;
28547;SDS011;15750;49.600;8.746;2023-02-16T13:30:22;10.77;;;8.93;;
28547;SDS011;15750;49.600;8.746;2023-02-16T13:33:26;13.80;;;8.53;;
28547;SDS011;15750;49.600;8.746;2023-02-16T13:39:35;8.90;;;7.80;;
28547;SDS011;15750;49.600;8.746;2023-02-16T13:45:39;8.70;;;7.27;;
28547;SDS011;15750;49.600;8.746;2023-02-16T13:48:13;8.20;;;7.40;;
28547;SDS011;15750;49.600;8.746;2023-02-16T13:50:54;8.53;;;7.23;;
28547;SDS011;15750;49.600;8.746;2023-02-16T13:53:25;11.40;;;8.37;;
28547;SDS011;15750;49.600;8.746;2023-02-16T13:56:11;9.33;;;7.77;;
28547;SDS011;15750;49.600;8.746;2023-02-16T13:58:49;10.53;;;9.10;;
28547;SDS011;15750;49.600;8.746;2023-02-16T14:01:37;12.23;;;8.93;;
28547;SDS011;15750;49.600;8.746;2023-02-16T14:04:13;9.10;;;8.10;;
28547;SDS011;15750;49.600;8.746;2023-02-16T14:07:31;10.67;;;8.23;;
28547;SDS011;15750;49.600;8.746;2023-02-16T14:10:05;9.10;;;7.53;;
28547;SDS011;15750;49.600;8.746;2023-02-16T14:12:40;9.70;;;8.60;;
28547;SDS011;15750;49.600;8.746;2023-02-16T14:15:18;9.27;;;8.37;;
28547;SDS011;15750;49.600;8.746;2023-02-16T14:17:48;12.77;;;11.23;;
28547;SDS011;15750;49.600;8.746;2023-02-16T14:20:26;16.17;;;12.90;;
28547;SDS011;15750;49.600;8.746;2023-02-16T14:22:56;10.63;;;9.07;;
28547;SDS011;15750;49.600;8.746;2023-02-16T14:25:33;9.90;;;7.77;;
28547;SDS011;15750;49.600;8.746;2023-02-16T14:28:05;7.63;;;6.83;;
28547;SDS011;15750;49.600;8.746;2023-02-16T14:31:31;8.07;;;7.27;;
28547;SDS011;15750;49.600;8.746;2023-02-16T14:34:12;9.63;;;7.63;;
28547;SDS011;15750;49.600;8.746;2023-02-16T14:40:02;8.23;;;6.83;;
28547;SDS011;15750;49.600;8.746;2023-02-16T14:42:43;7.53;;;6.80;;
28547;SDS011;15750;49.600;8.746;2023-02-16T14:48:51;9.47;;;7.13;;
28547;SDS011;15750;49.600;8.746;2023-02-16T14:52:25;8.90;;;8.00;;
28547;SDS011;15750;49.600;8.746;2023-02-16T14:58:35;10.97;;;9.83;;
28547;SDS011;15750;49.600;8.746;2023-02-16T15:01:13;12.90;;;10.37;;
28547;SDS011;15750;49.600;8.746;2023-02-16T15:03:45;9.27;;;7.80;;
28547;SDS011;15750;49.600;8.746;2023-02-16T15:06:19;9.80;;;7.93;;
28547;SDS011;15750;49.600;8.746;2023-02-16T15:08:56;12.87;;;7.67;;
28547;SDS011;15750;49.600;8.746;2023-02-16T15:11:31;10.53;;;7.17;;
28547;SDS011;15750;49.600;8.746;2023-02-16T15:14:22;9.77;;;7.10;;
28547;SDS011;15750;49.600;8.746;2023-02-16T15:16:53;7.63;;;6.57;;
28547;SDS011;15750;49.600;8.746;2023-02-16T15:19:25;8.80;;;7.30;;
28547;SDS011;15750;49.600;8.746;2023-02-16T15:22:09;7.87;;;6.97;;
28547;SDS011;15750;49.600;8.746;2023-02-16T15:24:56;7.00;;;6.30;;
28547;SDS011;15750;49.600;8.746;2023-02-16T15:27:28;9.90;;;6.93;;
28547;SDS011;15750;49.600;8.746;2023-02-16T15:30:05;8.33;;;7.33;;
28547;SDS011;15750;49.600;8.746;2023-02-16T15:32:48;7.73;;;7.03;;
28547;SDS011;15750;49.600;8.746;2023-02-16T15:35:23;8.40;;;7.17;;
28547;SDS011;15750;49.600;8.746;2023-02-16T15:38:04;9.87;;;8.33;;
28547;SDS011;15750;49.600;8.746;2023-02-16T15:40:36;8.23;;;7.03;;
28547;SDS011;15750;49.600;8.746;2023-02-16T15:43:08;8.47;;;7.50;;
28547;SDS011;15750;49.600;8.746;2023-02-16T15:45:48;8.50;;;7.20;;